createdAt,value
2022-08-09T00:01:19.765Z,101293.00
2022-08-09T00:04:10.699Z,101291.00
2022-08-09T00:06:37.140Z,101301.00
2022-08-09T00:09:05.652Z,101287.00
2022-08-09T00:12:04.010Z,101287.00
2022-08-09T00:14:21.975Z,101290.00
2022-08-09T00:16:58.510Z,101297.00
2022-08-09T00:19:27.653Z,101297.00
2022-08-09T00:21:57.035Z,101293.00
2022-08-09T00:24:27.131Z,101298.00
2022-08-09T00:26:57.467Z,101286.00
2022-08-09T00:30:10.220Z,101287.00
2022-08-09T00:32:26.556Z,101290.00
2022-08-09T00:34:55.583Z,101282.00
2022-08-09T00:37:23.908Z,101288.00
2022-08-09T00:40:12.258Z,101283.00
2022-08-09T00:44:13.996Z,101281.00
2022-08-09T00:45:29.178Z,101282.00
2022-08-09T00:47:57.075Z,101274.00
2022-08-09T00:50:26.048Z,101278.00
2022-08-09T00:52:55.236Z,101272.00
2022-08-09T00:56:03.991Z,101280.00
2022-08-09T00:58:14.686Z,101282.00
2022-08-09T01:00:53.269Z,101284.00
2022-08-09T01:03:40.908Z,101281.00
2022-08-09T01:06:21.910Z,101284.00
2022-08-09T01:09:11.170Z,101288.00
2022-08-09T01:11:53.356Z,101283.00
2022-08-09T01:14:37.816Z,101282.00
2022-08-09T01:17:12.068Z,101286.00
2022-08-09T01:20:02.998Z,101290.00
2022-08-09T01:22:54.659Z,101294.00
2022-08-09T01:25:41.498Z,101300.00
2022-08-09T01:28:11.470Z,101294.00
2022-08-09T01:30:51.673Z,101299.00
2022-08-09T01:33:24.546Z,101296.00
2022-08-09T01:36:00.071Z,101295.00
2022-08-09T01:38:30.275Z,101299.00
2022-08-09T01:41:56.131Z,101294.00
2022-08-09T01:44:30.646Z,101297.00
2022-08-09T01:47:01.330Z,101291.00
2022-08-09T01:49:31.914Z,101289.00
2022-08-09T01:52:09.918Z,101296.00
2022-08-09T01:54:40.482Z,101289.00
2022-08-09T01:57:21.699Z,101293.00
2022-08-09T01:59:52.718Z,101294.00
2022-08-09T02:02:31.622Z,101296.00
2022-08-09T02:05:15.295Z,101292.00
2022-08-09T02:08:40.560Z,101289.00
2022-08-09T02:10:56.830Z,101284.00
2022-08-09T02:13:37.587Z,101293.00
2022-08-09T02:16:10.538Z,101291.00
2022-08-09T02:18:43.061Z,101284.00
2022-08-09T02:21:22.245Z,101292.00
2022-08-09T02:23:58.171Z,101293.00
2022-08-09T02:26:31.299Z,101294.00
2022-08-09T02:29:04.324Z,101288.00
2022-08-09T02:31:36.359Z,101295.00
2022-08-09T02:34:40.272Z,101292.00
2022-08-09T02:37:12.007Z,101290.00
2022-08-09T02:39:44.539Z,101297.00
2022-08-09T02:42:24.912Z,101298.00
2022-08-09T02:45:13.746Z,101299.00
2022-08-09T02:47:46.393Z,101304.00
2022-08-09T02:51:02.505Z,101303.00
2022-08-09T02:53:39.705Z,101297.00
2022-08-09T02:56:12.079Z,101301.00
2022-08-09T02:58:42.828Z,101297.00
2022-08-09T03:01:21.660Z,101295.00
2022-08-09T03:04:17.230Z,101302.00
2022-08-09T03:06:45.921Z,101300.00
2022-08-09T03:09:17.669Z,101294.00
2022-08-09T03:12:10.460Z,101296.00
2022-08-09T03:14:34.555Z,101298.00
2022-08-09T03:17:05.624Z,101301.00
2022-08-09T03:19:58.336Z,101304.00
2022-08-09T03:22:24.918Z,101303.00
2022-08-09T03:25:06.140Z,101303.00
2022-08-09T03:27:51.261Z,101305.00
2022-08-09T03:30:30.083Z,101300.00
2022-08-09T03:33:16.995Z,101294.00
2022-08-09T03:36:13.061Z,101299.00
2022-08-09T03:38:42.530Z,101298.00
2022-08-09T03:41:16.384Z,101300.00
2022-08-09T03:44:02.837Z,101298.00
2022-08-09T03:46:35.616Z,101307.00
2022-08-09T03:49:07.845Z,101307.00
2022-08-09T03:51:55.223Z,101307.00
2022-08-09T03:54:32.023Z,101310.00
2022-08-09T03:57:04.099Z,101311.00
2022-08-09T03:59:53.733Z,101317.00
2022-08-09T04:02:27.579Z,101314.00
2022-08-09T04:05:26.605Z,101318.00
2022-08-09T04:07:57.265Z,101322.00
2022-08-09T04:10:28.907Z,101331.00
2022-08-09T04:13:01.231Z,101321.00
2022-08-09T04:15:52.545Z,101323.00
2022-08-09T04:18:21.477Z,101325.00
2022-08-09T04:20:51.249Z,101331.00
2022-08-09T04:23:24.494Z,101326.00
2022-08-09T04:25:54.455Z,101327.00
2022-08-09T04:28:34.190Z,101334.00
2022-08-09T04:31:08.649Z,101337.00
2022-08-09T04:33:47.453Z,101341.00
2022-08-09T04:36:23.515Z,101334.00
2022-08-09T04:38:53.033Z,101337.00
2022-08-09T04:41:24.018Z,101340.00
2022-08-09T04:44:05.308Z,101339.00
2022-08-09T04:46:37.872Z,101340.00
2022-08-09T04:49:40.840Z,101341.00
2022-08-09T04:52:18.687Z,101340.00
2022-08-09T04:54:53.389Z,101342.00
2022-08-09T04:57:23.939Z,101350.00
2022-08-09T04:59:56.168Z,101352.00
2022-08-09T05:02:27.225Z,101359.00
2022-08-09T05:04:56.183Z,101357.00
2022-08-09T05:07:25.279Z,101355.00
2022-08-09T05:09:58.000Z,101355.00
2022-08-09T05:12:31.051Z,101357.00
2022-08-09T05:14:59.088Z,101356.00
2022-08-09T05:18:39.244Z,101351.00
2022-08-09T05:20:14.847Z,101359.00
2022-08-09T05:23:55.452Z,101358.00
2022-08-09T05:25:32.613Z,101364.00
2022-08-09T05:28:00.687Z,101358.00
2022-08-09T05:30:31.167Z,101349.00
2022-08-09T05:33:00.846Z,101352.00
2022-08-09T05:35:29.949Z,101355.00
2022-08-09T05:37:59.957Z,101358.00
2022-08-09T05:40:29.823Z,101363.00
2022-08-09T05:42:58.101Z,101367.00
2022-08-09T05:45:26.288Z,101375.00
2022-08-09T05:48:14.101Z,101370.00
2022-08-09T05:50:57.112Z,101373.00
2022-08-09T05:53:33.965Z,101374.00
2022-08-09T05:56:03.343Z,101377.00
2022-08-09T05:58:31.125Z,101378.00
2022-08-09T06:00:59.653Z,101380.00
2022-08-09T06:03:28.053Z,101378.00
2022-08-09T06:06:12.261Z,101376.00
2022-08-09T06:08:40.210Z,101388.00
2022-08-09T06:11:17.609Z,101393.00
2022-08-09T06:13:47.507Z,101394.00
2022-08-09T06:16:16.309Z,101401.00
2022-08-09T06:18:44.931Z,101398.00
2022-08-09T06:21:12.983Z,101399.00
2022-08-09T06:23:58.724Z,101397.00
2022-08-09T06:26:31.478Z,101402.00
2022-08-09T06:29:04.811Z,101401.00
2022-08-09T06:31:40.050Z,101400.00
2022-08-09T06:34:23.394Z,101395.00
2022-08-09T06:36:59.407Z,101407.00
2022-08-09T06:39:48.149Z,101404.00
2022-08-09T06:42:24.848Z,101410.00
2022-08-09T06:45:00.211Z,101403.00
2022-08-09T06:47:39.805Z,101411.00
2022-08-09T06:50:15.003Z,101407.00
2022-08-09T06:52:48.555Z,101410.00
2022-08-09T06:55:18.755Z,101402.00
2022-08-09T06:58:03.526Z,101401.00
2022-08-09T07:00:55.053Z,101407.00
2022-08-09T07:03:28.556Z,101411.00
2022-08-09T07:06:03.881Z,101406.00
2022-08-09T07:08:34.759Z,101398.00
2022-08-09T07:11:06.873Z,101409.00
2022-08-09T07:13:45.112Z,101405.00
2022-08-09T07:16:41.317Z,101408.00
2022-08-09T07:19:15.742Z,101404.00
2022-08-09T07:21:57.899Z,101410.00
2022-08-09T07:24:39.803Z,101408.00
2022-08-09T07:27:33.145Z,101409.00
2022-08-09T07:30:02.257Z,101411.00
2022-08-09T07:32:32.303Z,101412.00
2022-08-09T07:35:10.209Z,101414.00
2022-08-09T07:37:42.778Z,101414.00
2022-08-09T07:40:16.715Z,101413.00
2022-08-09T07:42:55.960Z,101417.00
2022-08-09T07:45:39.489Z,101418.00
2022-08-09T07:48:29.449Z,101416.00
2022-08-09T07:51:09.601Z,101410.00
2022-08-09T07:54:05.566Z,101414.00
2022-08-09T07:56:39.007Z,101416.00
2022-08-09T07:59:34.617Z,101407.00
2022-08-09T08:02:09.365Z,101413.00
2022-08-09T08:04:39.246Z,101414.00
2022-08-09T08:07:21.558Z,101414.00
2022-08-09T08:10:07.938Z,101414.00
2022-08-09T08:12:43.791Z,101415.00
2022-08-09T08:15:14.493Z,101417.00
2022-08-09T08:17:53.115Z,101413.00
2022-08-09T08:20:29.137Z,101414.00
2022-08-09T08:23:03.388Z,101414.00
2022-08-09T08:25:44.086Z,101412.00
2022-08-09T08:28:15.078Z,101411.00
2022-08-09T08:30:44.382Z,101418.00
2022-08-09T08:33:22.898Z,101416.00
2022-08-09T08:35:59.343Z,101418.00
2022-08-09T08:38:29.516Z,101420.00
2022-08-09T08:41:01.737Z,101415.00
2022-08-09T08:43:34.248Z,101416.00
2022-08-09T08:46:31.657Z,101418.00
2022-08-09T08:48:56.091Z,101414.00
2022-08-09T08:51:27.220Z,101408.00
2022-08-09T08:54:20.491Z,101414.00
2022-08-09T08:56:57.979Z,101415.00
2022-08-09T08:59:28.095Z,101407.00
2022-08-09T09:02:31.924Z,101410.00
2022-08-09T09:05:02.951Z,101407.00
2022-08-09T09:07:36.970Z,101412.00
2022-08-09T09:10:12.901Z,101414.00
2022-08-09T09:12:42.449Z,101415.00
2022-08-09T09:15:12.255Z,101414.00
2022-08-09T09:17:56.619Z,101414.00
2022-08-09T09:20:25.827Z,101424.00
2022-08-09T09:23:01.767Z,101420.00
2022-08-09T09:26:04.537Z,101408.00
2022-08-09T09:28:39.205Z,101415.00
2022-08-09T09:32:04.031Z,101417.00
2022-08-09T09:34:14.699Z,101413.00
2022-08-09T09:36:52.800Z,101411.00
2022-08-09T09:39:25.739Z,101405.00
2022-08-09T09:42:27.881Z,101406.00
2022-08-09T09:45:01.375Z,101412.00
2022-08-09T09:47:32.468Z,101409.00
2022-08-09T09:50:13.781Z,101402.00
2022-08-09T09:52:55.828Z,101409.00
2022-08-09T09:55:31.927Z,101417.00
2022-08-09T09:58:16.188Z,101411.00
2022-08-09T10:01:00.049Z,101414.00
2022-08-09T10:03:44.801Z,101422.00
2022-08-09T10:06:42.704Z,101422.00
2022-08-09T10:09:22.357Z,101420.00
2022-08-09T10:12:14.436Z,101422.00
2022-08-09T10:14:51.640Z,101413.00
2022-08-09T10:17:40.340Z,101413.00
2022-08-09T10:20:27.769Z,101406.00
2022-08-09T10:23:20.271Z,101416.00
2022-08-09T10:26:06.727Z,101413.00
2022-08-09T10:28:40.341Z,101408.00
2022-08-09T10:34:08.362Z,101409.00
2022-08-09T10:36:54.489Z,101404.00
2022-08-09T10:39:28.306Z,101398.00
2022-08-09T10:41:56.992Z,101406.00
2022-08-09T10:44:30.537Z,101407.00
2022-08-09T10:48:19.266Z,101398.00
2022-08-09T10:50:21.097Z,101391.00
2022-08-09T10:53:54.162Z,101393.00
2022-08-09T10:56:36.277Z,101395.00
2022-08-09T10:59:30.757Z,101395.00
2022-08-09T11:03:11.319Z,101396.00
2022-08-09T11:05:24.812Z,101393.00
2022-08-09T11:07:59.395Z,101387.00
2022-08-09T11:10:47.035Z,101390.00
2022-08-09T11:13:49.093Z,101378.00
2022-08-09T11:16:33.677Z,101386.00
2022-08-09T11:19:07.970Z,101390.00
2022-08-09T11:22:05.542Z,101387.00
2022-08-09T11:25:08.382Z,101384.00
2022-08-09T11:27:52.873Z,101383.00
2022-08-09T11:30:32.600Z,101384.00
2022-08-09T11:33:05.973Z,101384.00
2022-08-09T11:35:56.964Z,101383.00
2022-08-09T11:38:34.060Z,101385.00
2022-08-09T11:41:12.997Z,101387.00
2022-08-09T11:43:49.124Z,101393.00
2022-08-09T11:46:26.834Z,101387.00
2022-08-09T11:49:05.145Z,101386.00
2022-08-09T11:53:03.131Z,101386.00
2022-08-09T11:55:52.369Z,101393.00
2022-08-09T11:58:30.394Z,101386.00
2022-08-09T12:01:15.133Z,101382.00
2022-08-09T12:03:55.405Z,101386.00
2022-08-09T12:06:32.807Z,101380.00
2022-08-09T12:09:17.644Z,101383.00
2022-08-09T12:12:03.446Z,101371.00
2022-08-09T12:14:40.789Z,101374.00
2022-08-09T12:17:34.065Z,101360.00
2022-08-09T12:20:16.216Z,101361.00
2022-08-09T12:22:50.222Z,101360.00
2022-08-09T12:25:31.991Z,101350.00
2022-08-09T12:29:11.661Z,101349.00
2022-08-09T12:32:01.817Z,101341.00
2022-08-09T12:34:37.917Z,101336.00
2022-08-09T12:37:24.243Z,101340.00
2022-08-09T12:40:05.587Z,101327.00
2022-08-09T12:42:34.571Z,101332.00
2022-08-09T12:45:07.019Z,101327.00
2022-08-09T12:47:52.945Z,101337.00
2022-08-09T12:50:24.901Z,101340.00
2022-08-09T12:53:18.066Z,101343.00
2022-08-09T12:56:14.329Z,101333.00
2022-08-09T12:58:29.662Z,101332.00
2022-08-09T13:00:58.304Z,101327.00
2022-08-09T13:03:57.125Z,101328.00
2022-08-09T13:06:35.417Z,101327.00
2022-08-09T13:09:13.262Z,101323.00
2022-08-09T13:11:43.851Z,101317.00
2022-08-09T13:14:43.717Z,101318.00
2022-08-09T13:17:16.155Z,101312.00
2022-08-09T13:20:07.170Z,101315.00
2022-08-09T13:23:05.415Z,101315.00
2022-08-09T13:25:42.887Z,101311.00
2022-08-09T13:28:34.517Z,101306.00
2022-08-09T13:32:13.423Z,101305.00
2022-08-09T13:33:57.314Z,101299.00
2022-08-09T13:36:40.887Z,101294.00
2022-08-09T13:41:22.392Z,101291.00
2022-08-09T13:42:11.995Z,101299.00
2022-08-09T13:44:42.876Z,101308.00
2022-08-09T13:47:31.245Z,101290.00
2022-08-09T13:50:08.690Z,101299.00
2022-08-09T13:52:41.934Z,101300.00
2022-08-09T13:55:13.793Z,101311.00
2022-08-09T13:57:55.904Z,101301.00
2022-08-09T14:00:28.746Z,101311.00
2022-08-09T14:03:16.512Z,101306.00
2022-08-09T14:05:59.080Z,101307.00
2022-08-09T14:08:31.367Z,101307.00
2022-08-09T14:11:00.468Z,101306.00
2022-08-09T14:14:24.515Z,101301.00
2022-08-09T14:16:28.315Z,101306.00
2022-08-09T14:18:59.515Z,101310.00
2022-08-09T14:21:29.435Z,101306.00
2022-08-09T14:24:01.334Z,101306.00
2022-08-09T14:26:38.662Z,101306.00
2022-08-09T14:30:15.029Z,101297.00
2022-08-09T14:31:57.643Z,101292.00
2022-08-09T14:34:32.748Z,101301.00
2022-08-09T14:37:02.567Z,101294.00
2022-08-09T14:39:40.340Z,101288.00
2022-08-09T14:42:32.066Z,101290.00
2022-08-09T14:45:14.826Z,101291.00
2022-08-09T14:47:57.573Z,101293.00
2022-08-09T14:50:37.398Z,101291.00
2022-08-09T14:53:11.335Z,101283.00
2022-08-09T14:55:47.880Z,101290.00
2022-08-09T14:58:19.090Z,101287.00
2022-08-09T15:00:48.545Z,101284.00
2022-08-09T15:03:20.405Z,101296.00
2022-08-09T15:05:50.242Z,101297.00
2022-08-09T15:08:24.974Z,101298.00
2022-08-09T15:11:00.380Z,101295.00
2022-08-09T15:13:55.882Z,101286.00
2022-08-09T15:16:19.969Z,101287.00
2022-08-09T15:18:49.147Z,101285.00
2022-08-09T15:21:55.400Z,101281.00
2022-08-09T15:24:12.757Z,101284.00
2022-08-09T15:26:45.855Z,101284.00
2022-08-09T15:30:48.507Z,101279.00
2022-08-09T15:32:04.067Z,101282.00
2022-08-09T15:34:35.350Z,101279.00
2022-08-09T15:37:24.359Z,101282.00
2022-08-09T15:40:12.447Z,101279.00
2022-08-09T15:42:43.176Z,101272.00
2022-08-09T15:45:13.896Z,101280.00
2022-08-09T15:47:52.335Z,101272.00
2022-08-09T15:50:30.499Z,101262.00
2022-08-09T15:53:06.269Z,101267.00
2022-08-09T15:56:04.273Z,101265.00
2022-08-09T15:58:26.877Z,101266.00
2022-08-09T16:00:56.791Z,101262.00
2022-08-09T16:03:29.674Z,101271.00
2022-08-09T16:06:07.603Z,101274.00
2022-08-09T16:08:56.282Z,101268.00
2022-08-09T16:11:27.310Z,101272.00
2022-08-09T16:14:04.969Z,101264.00
2022-08-09T16:16:37.197Z,101265.00
2022-08-09T16:19:14.690Z,101258.00
2022-08-09T16:21:48.718Z,101265.00
2022-08-09T16:24:32.726Z,101263.00
2022-08-09T16:27:02.458Z,101265.00
2022-08-09T16:29:36.888Z,101269.00
2022-08-09T16:32:18.924Z,101266.00
2022-08-09T16:34:56.671Z,101274.00
2022-08-09T16:37:53.084Z,101262.00
2022-08-09T16:40:20.460Z,101269.00
2022-08-09T16:42:49.177Z,101266.00
2022-08-09T16:45:19.856Z,101266.00
2022-08-09T16:48:42.959Z,101282.00
2022-08-09T16:50:38.608Z,101269.00
2022-08-09T16:53:06.902Z,101274.00
2022-08-09T16:55:58.697Z,101267.00
2022-08-09T16:58:25.500Z,101260.00
2022-08-09T17:00:54.899Z,101256.00
2022-08-09T17:03:24.185Z,101262.00
2022-08-09T17:06:07.951Z,101265.00
2022-08-09T17:08:43.947Z,101268.00
2022-08-09T17:11:32.933Z,101263.00
2022-08-09T17:14:25.771Z,101271.00
2022-08-09T17:17:02.578Z,101267.00
2022-08-09T17:20:04.947Z,101263.00
2022-08-09T17:22:30.919Z,101273.00
2022-08-09T17:25:03.454Z,101272.00
2022-08-09T17:27:38.187Z,101273.00
2022-08-09T17:30:14.235Z,101273.00
2022-08-09T17:32:44.345Z,101265.00
2022-08-09T17:35:14.661Z,101270.00
2022-08-09T17:38:12.085Z,101270.00
2022-08-09T17:40:33.496Z,101270.00
2022-08-09T17:43:33.165Z,101274.00
2022-08-09T17:46:03.231Z,101269.00
2022-08-09T17:48:33.986Z,101274.00
2022-08-09T17:51:09.773Z,101281.00
2022-08-09T17:53:51.592Z,101272.00
2022-08-09T17:56:27.458Z,101276.00
2022-08-09T17:59:03.085Z,101270.00
2022-08-09T18:01:40.658Z,101277.00
2022-08-09T18:04:20.545Z,101273.00
2022-08-09T18:06:53.970Z,101274.00
2022-08-09T18:09:23.190Z,101280.00
2022-08-09T18:12:14.607Z,101281.00
2022-08-09T18:14:50.051Z,101285.00
2022-08-09T18:17:27.198Z,101283.00
2022-08-09T18:20:56.931Z,101288.00
2022-08-09T18:22:59.824Z,101297.00
2022-08-09T18:25:50.890Z,101286.00
2022-08-09T18:30:35.791Z,101285.00
2022-08-09T18:31:11.443Z,101292.00
2022-08-09T18:33:40.294Z,101297.00
2022-08-09T18:36:25.341Z,101295.00
2022-08-09T18:39:00.731Z,101297.00
2022-08-09T18:41:34.209Z,101304.00
2022-08-09T18:44:13.091Z,101301.00
2022-08-09T18:46:49.337Z,101303.00
2022-08-09T18:49:20.934Z,101301.00
2022-08-09T18:51:55.465Z,101301.00
2022-08-09T18:54:29.535Z,101307.00
2022-08-09T18:57:06.102Z,101308.00
2022-08-09T18:59:48.700Z,101316.00
2022-08-09T19:02:18.689Z,101320.00
2022-08-09T19:05:04.197Z,101330.00
2022-08-09T19:07:35.981Z,101330.00
2022-08-09T19:10:13.945Z,101333.00
2022-08-09T19:12:45.535Z,101339.00
2022-08-09T19:15:24.789Z,101339.00
2022-08-09T19:17:56.309Z,101337.00
2022-08-09T19:20:24.968Z,101344.00
2022-08-09T19:22:58.527Z,101334.00
2022-08-09T19:26:01.267Z,101338.00
2022-08-09T19:28:16.505Z,101344.00
2022-08-09T19:30:45.445Z,101344.00
2022-08-09T19:33:19.701Z,101342.00
2022-08-09T19:35:58.442Z,101349.00
2022-08-09T19:38:27.798Z,101342.00
2022-08-09T19:40:59.769Z,101340.00
2022-08-09T19:44:01.105Z,101340.00
2022-08-09T19:46:17.460Z,101356.00
2022-08-09T19:50:09.219Z,101357.00
2022-08-09T19:51:55.885Z,101349.00
2022-08-09T19:54:25.595Z,101349.00
2022-08-09T19:56:54.550Z,101340.00
2022-08-09T19:59:57.889Z,101352.00
2022-08-09T20:02:17.282Z,101358.00
2022-08-09T20:05:02.350Z,101357.00
2022-08-09T20:07:59.598Z,101365.00
2022-08-09T20:10:34.589Z,101357.00
2022-08-09T20:13:06.909Z,101358.00
2022-08-09T20:16:34.641Z,101355.00
2022-08-09T20:18:27.569Z,101355.00
2022-08-09T20:20:57.419Z,101357.00
2022-08-09T20:23:38.903Z,101356.00
2022-08-09T20:26:13.185Z,101351.00
2022-08-09T20:28:47.946Z,101349.00
2022-08-09T20:31:18.263Z,101352.00
2022-08-09T20:33:46.860Z,101364.00
2022-08-09T20:36:27.313Z,101355.00
2022-08-09T20:39:28.603Z,101357.00
2022-08-09T20:41:43.753Z,101348.00
2022-08-09T20:44:12.089Z,101345.00
2022-08-09T20:46:43.012Z,101349.00
2022-08-09T20:49:16.045Z,101361.00
2022-08-09T20:51:50.679Z,101356.00
2022-08-09T20:54:19.566Z,101355.00
2022-08-09T20:56:53.717Z,101352.00
2022-08-09T20:59:50.233Z,101360.00
2022-08-09T21:02:17.277Z,101357.00
2022-08-09T21:05:50.981Z,101350.00
2022-08-09T21:07:40.343Z,101355.00
2022-08-09T21:10:12.303Z,101347.00
2022-08-09T21:12:40.312Z,101356.00
2022-08-09T21:15:12.744Z,101357.00
2022-08-09T21:18:23.028Z,101352.00
2022-08-09T21:20:29.905Z,101361.00
2022-08-09T21:22:59.283Z,101357.00
2022-08-09T21:25:55.815Z,101359.00
2022-08-09T21:28:34.343Z,101360.00
2022-08-09T21:31:18.114Z,101356.00
2022-08-09T21:33:52.733Z,101361.00
2022-08-09T21:36:23.706Z,101357.00
2022-08-09T21:38:58.219Z,101364.00
2022-08-09T21:42:05.610Z,101358.00
2022-08-09T21:44:32.925Z,101369.00
2022-08-09T21:47:08.851Z,101363.00
2022-08-09T21:49:43.100Z,101357.00
2022-08-09T21:52:16.329Z,101363.00
2022-08-09T21:54:57.200Z,101367.00
2022-08-09T21:57:58.572Z,101362.00
2022-08-09T22:00:31.918Z,101368.00
2022-08-09T22:03:04.461Z,101367.00
2022-08-09T22:05:36.877Z,101372.00
2022-08-09T22:08:13.771Z,101367.00
2022-08-09T22:11:50.402Z,101367.00
2022-08-09T22:13:36.643Z,101371.00
2022-08-09T22:16:08.300Z,101372.00
2022-08-09T22:18:38.329Z,101376.00
2022-08-09T22:21:09.541Z,101381.00
2022-08-09T22:23:59.025Z,101390.00
2022-08-09T22:26:34.830Z,101395.00
2022-08-09T22:29:09.216Z,101393.00
2022-08-09T22:31:44.159Z,101390.00
2022-08-09T22:34:15.598Z,101395.00
2022-08-09T22:36:46.404Z,101394.00
2022-08-09T22:39:47.015Z,101392.00
2022-08-09T22:42:20.616Z,101398.00
2022-08-09T22:45:00.233Z,101395.00
2022-08-09T22:48:14.953Z,101395.00
2022-08-09T22:50:26.330Z,101389.00
2022-08-09T22:52:54.866Z,101395.00
2022-08-09T22:55:39.742Z,101394.00
2022-08-09T22:58:20.405Z,101394.00
2022-08-09T23:01:02.380Z,101399.00
2022-08-09T23:04:06.111Z,101407.00
2022-08-09T23:06:32.621Z,101395.00
2022-08-09T23:09:05.439Z,101399.00
2022-08-09T23:11:33.517Z,101399.00
2022-08-09T23:14:03.207Z,101405.00
2022-08-09T23:16:34.249Z,101406.00
2022-08-09T23:19:02.301Z,101404.00
2022-08-09T23:21:33.604Z,101404.00
2022-08-09T23:24:07.125Z,101403.00
2022-08-09T23:26:42.345Z,101408.00
2022-08-09T23:29:11.887Z,101398.00
2022-08-09T23:31:40.797Z,101404.00
2022-08-09T23:34:09.139Z,101413.00
2022-08-09T23:36:37.553Z,101406.00
2022-08-09T23:39:06.624Z,101414.00
2022-08-09T23:41:35.401Z,101406.00
2022-08-09T23:44:03.778Z,101405.00
2022-08-09T23:46:32.387Z,101405.00
2022-08-09T23:49:04.993Z,101407.00
2022-08-09T23:51:34.154Z,101403.00
2022-08-09T23:54:03.387Z,101404.00
2022-08-09T23:56:39.571Z,101394.00
2022-08-09T23:59:24.101Z,101405.00
